This is the latest recevied weather packets stored in our database for station/object WD7OO. If no packets are shown the sender has not sent any weather packets the latest 10 day(s).
| Time | Temp. | Humidity | Pressure | Rain* | Wind** | Luminosity | Snow |
|---|---|---|---|---|---|---|---|
| 1788205110 | 29.44° C | 75% | 1015.7 hPa | 0 mm | - | 538 W/m² | - |
| 1788204805 | 29.44° C | 76% | 1015.6 hPa | 0 mm | - | 534 W/m² | - |
| 1788204501 | 29.44° C | 75% | 1015.9 hPa | 0 mm | - | 601 W/m² | - |
| 1788204201 | 28.89° C | 78% | 1015.9 hPa | 0 mm | - | 593 W/m² | - |
| 1788203897 | 28.89° C | 75% | 1016.2 hPa | 0 mm | - | 617 W/m² | - |
| 1788203593 | 28.89° C | 77% | 1016.2 hPa | 0 mm | - | 651 W/m² | - |
| 1788203288 | 28.89° C | 76% | 1016.2 hPa | 0 mm | - | 664 W/m² | - |
| 1788202988 | 28.89° C | 79% | 1016.4 hPa | 0 mm | - | 656 W/m² | - |
| 1788202682 | 28.33° C | 79% | 1016.7 hPa | 0 mm | - | 633 W/m² | - |
| 1788202378 | 27.78° C | 83% | 1016.2 hPa | 0 mm | - | 629 W/m² | - |
| 1788202077 | 27.22° C | 85% | 1016.4 hPa | 0 mm | - | 633 W/m² | - |
| 1788201773 | 27.22° C | 84% | 1016.8 hPa | 0 mm | - | 643 W/m² | - |
| 1788201468 | 26.67° C | 86% | 1016.7 hPa | 0 mm | - | 640 W/m² | - |
| 1788201167 | 26.67° C | 85% | 1016.8 hPa | 0 mm | - | 626 W/m² | - |
| 1788200866 | 26.11° C | 89% | 1016.6 hPa | 0 mm | - | 674 W/m² | - |
| 1788200561 | 25.56° C | 89% | 1016.9 hPa | 0 mm | - | 705 W/m² | - |
| 1788200256 | 25° C | 91% | 1016.7 hPa | 0 mm | - | 361 W/m² | - |
| 1788199952 | 24.44° C | 92% | 1016.9 hPa | 0 mm | - | 349 W/m² | - |
| 1788199652 | 24.44° C | 92% | 1016.9 hPa | 0 mm | - | 262 W/m² | - |
| 1788199347 | 24.44° C | 93% | 1017 hPa | 0 mm | - | 329 W/m² | - |
| 1788199046 | 23.89° C | 94% | 1017.2 hPa | 0 mm | - | 821 W/m² | - |
| 1788198743 | 23.89° C | 94% | 1017 hPa | 0 mm | - | 304 W/m² | - |
| 1788198437 | 23.33° C | 96% | 1017.1 hPa | 0 mm | - | 321 W/m² | - |
| 1788198133 | 23.33° C | 97% | 1017.4 hPa | 0 mm | - | 278 W/m² | - |
| 1788197832 | 22.78° C | 97% | 1017.4 hPa | 0 mm | - | 225 W/m² | - |
* Rain latest hour (hover to see other rain measurements)
** Current wind speed in m/s (hover to see current wind gust speed)